sensor_id;sensor_type;location;lat;lon;timestamp;pressure;altitude;pressure_sealevel;temperature;humidity
21100;BME280;10708;50.824;4.408;2022-12-18T00:02:49;101703.16;;;-3.67;100.00
21100;BME280;10708;50.824;4.408;2022-12-18T00:07:53;101711.50;;;-3.73;100.00
21100;BME280;10708;50.824;4.408;2022-12-18T00:12:56;101713.06;;;-3.76;100.00
21100;BME280;10708;50.824;4.408;2022-12-18T00:17:58;101720.66;;;-3.79;100.00
21100;BME280;10708;50.824;4.408;2022-12-18T00:23:02;101705.88;;;-3.85;100.00
21100;BME280;10708;50.824;4.408;2022-12-18T00:28:04;101691.97;;;-3.88;100.00
21100;BME280;10708;50.824;4.408;2022-12-18T00:33:07;101688.50;;;-3.90;100.00
21100;BME280;10708;50.824;4.408;2022-12-18T00:38:10;101685.84;;;-3.92;100.00
21100;BME280;10708;50.824;4.408;2022-12-18T00:43:14;101676.25;;;-3.96;100.00
21100;BME280;10708;50.824;4.408;2022-12-18T00:48:16;101672.63;;;-4.01;100.00
21100;BME280;10708;50.824;4.408;2022-12-18T00:53:20;101667.41;;;-4.02;100.00
21100;BME280;10708;50.824;4.408;2022-12-18T00:58:22;101671.41;;;-4.09;100.00
21100;BME280;10708;50.824;4.408;2022-12-18T01:03:25;101660.06;;;-4.14;100.00
21100;BME280;10708;50.824;4.408;2022-12-18T01:08:28;101652.19;;;-4.17;100.00
21100;BME280;10708;50.824;4.408;2022-12-18T01:13:30;101658.97;;;-4.19;100.00
21100;BME280;10708;50.824;4.408;2022-12-18T01:18:33;101659.91;;;-4.17;100.00
21100;BME280;10708;50.824;4.408;2022-12-18T01:23:37;101666.91;;;-4.15;100.00
21100;BME280;10708;50.824;4.408;2022-12-18T01:28:40;101658.28;;;-4.15;100.00
21100;BME280;10708;50.824;4.408;2022-12-18T01:33:42;101660.13;;;-4.13;100.00
21100;BME280;10708;50.824;4.408;2022-12-18T01:38:48;101658.44;;;-4.12;100.00
21100;BME280;10708;50.824;4.408;2022-12-18T01:43:53;101648.00;;;-4.15;100.00
21100;BME280;10708;50.824;4.408;2022-12-18T01:48:57;101649.84;;;-4.13;100.00
21100;BME280;10708;50.824;4.408;2022-12-18T01:54:01;101660.88;;;-4.15;100.00
21100;BME280;10708;50.824;4.408;2022-12-18T01:59:08;101661.81;;;-4.13;100.00
21100;BME280;10708;50.824;4.408;2022-12-18T02:04:20;101668.44;;;-4.18;100.00
21100;BME280;10708;50.824;4.408;2022-12-18T02:09:28;101673.56;;;-4.20;100.00
21100;BME280;10708;50.824;4.408;2022-12-18T02:14:38;101667.53;;;-4.20;100.00
21100;BME280;10708;50.824;4.408;2022-12-18T02:19:47;101658.88;;;-4.22;100.00
21100;BME280;10708;50.824;4.408;2022-12-18T02:25:12;101654.53;;;-4.23;100.00
21100;BME280;10708;50.824;4.408;2022-12-18T02:30:18;101647.50;;;-4.27;100.00
21100;BME280;10708;50.824;4.408;2022-12-18T02:35:23;101640.56;;;-4.30;100.00
21100;BME280;10708;50.824;4.408;2022-12-18T02:40:27;101628.25;;;-4.37;100.00
21100;BME280;10708;50.824;4.408;2022-12-18T02:45:31;101633.28;;;-4.40;100.00
21100;BME280;10708;50.824;4.408;2022-12-18T02:50:37;101632.06;;;-4.48;100.00
21100;BME280;10708;50.824;4.408;2022-12-18T02:55:49;101637.03;;;-4.53;100.00
21100;BME280;10708;50.824;4.408;2022-12-18T03:00:59;101618.81;;;-4.57;100.00
21100;BME280;10708;50.824;4.408;2022-12-18T03:06:06;101604.97;;;-4.61;100.00
21100;BME280;10708;50.824;4.408;2022-12-18T03:11:12;101614.97;;;-4.67;100.00
21100;BME280;10708;50.824;4.408;2022-12-18T03:16:20;101609.66;;;-4.71;100.00
21100;BME280;10708;50.824;4.408;2022-12-18T03:21:28;101603.44;;;-4.76;100.00
21100;BME280;10708;50.824;4.408;2022-12-18T03:26:35;101617.09;;;-4.77;100.00
21100;BME280;10708;50.824;4.408;2022-12-18T03:31:44;101618.53;;;-4.84;100.00
21100;BME280;10708;50.824;4.408;2022-12-18T03:36:49;101614.03;;;-4.90;100.00
21100;BME280;10708;50.824;4.408;2022-12-18T03:41:58;101607.94;;;-4.92;100.00
21100;BME280;10708;50.824;4.408;2022-12-18T03:47:13;101599.34;;;-4.92;100.00
21100;BME280;10708;50.824;4.408;2022-12-18T03:52:20;101577.09;;;-4.92;100.00
21100;BME280;10708;50.824;4.408;2022-12-18T03:57:26;101581.22;;;-4.95;100.00
21100;BME280;10708;50.824;4.408;2022-12-18T04:02:32;101568.19;;;-5.00;100.00
21100;BME280;10708;50.824;4.408;2022-12-18T04:07:36;101586.84;;;-5.04;100.00
21100;BME280;10708;50.824;4.408;2022-12-18T04:12:40;101583.06;;;-5.12;100.00
21100;BME280;10708;50.824;4.408;2022-12-18T04:17:47;101574.91;;;-5.23;100.00
21100;BME280;10708;50.824;4.408;2022-12-18T04:22:50;101597.78;;;-5.27;100.00
21100;BME280;10708;50.824;4.408;2022-12-18T04:27:52;101612.06;;;-5.34;100.00
21100;BME280;10708;50.824;4.408;2022-12-18T04:32:55;101614.47;;;-5.37;100.00
21100;BME280;10708;50.824;4.408;2022-12-18T04:37:58;101616.84;;;-5.41;100.00
21100;BME280;10708;50.824;4.408;2022-12-18T04:43:00;101620.16;;;-5.44;100.00
21100;BME280;10708;50.824;4.408;2022-12-18T04:48:04;101617.44;;;-5.47;100.00
21100;BME280;10708;50.824;4.408;2022-12-18T04:53:06;101626.03;;;-5.46;100.00
21100;BME280;10708;50.824;4.408;2022-12-18T04:58:09;101611.56;;;-5.44;100.00
21100;BME280;10708;50.824;4.408;2022-12-18T05:03:12;101602.91;;;-5.46;100.00
21100;BME280;10708;50.824;4.408;2022-12-18T05:08:15;101603.66;;;-5.49;100.00
21100;BME280;10708;50.824;4.408;2022-12-18T05:13:17;101592.38;;;-5.52;100.00
21100;BME280;10708;50.824;4.408;2022-12-18T05:18:21;101599.06;;;-5.56;100.00
21100;BME280;10708;50.824;4.408;2022-12-18T05:23:24;101574.97;;;-5.60;100.00
21100;BME280;10708;50.824;4.408;2022-12-18T05:28:27;101573.28;;;-5.59;100.00
21100;BME280;10708;50.824;4.408;2022-12-18T05:33:33;101576.84;;;-5.55;100.00
21100;BME280;10708;50.824;4.408;2022-12-18T05:38:37;101578.75;;;-5.51;100.00
21100;BME280;10708;50.824;4.408;2022-12-18T05:43:40;101566.97;;;-5.46;100.00
21100;BME280;10708;50.824;4.408;2022-12-18T05:48:44;101561.09;;;-5.44;100.00
21100;BME280;10708;50.824;4.408;2022-12-18T05:53:47;101572.59;;;-5.36;100.00
21100;BME280;10708;50.824;4.408;2022-12-18T05:58:51;101586.59;;;-5.29;100.00
21100;BME280;10708;50.824;4.408;2022-12-18T06:03:56;101597.94;;;-5.24;100.00
21100;BME280;10708;50.824;4.408;2022-12-18T06:08:58;101595.38;;;-5.24;100.00
21100;BME280;10708;50.824;4.408;2022-12-18T06:14:03;101583.25;;;-5.27;100.00
21100;BME280;10708;50.824;4.408;2022-12-18T06:19:07;101580.75;;;-5.25;100.00
21100;BME280;10708;50.824;4.408;2022-12-18T06:24:09;101578.19;;;-5.25;100.00
21100;BME280;10708;50.824;4.408;2022-12-18T06:29:12;101573.34;;;-5.19;100.00
21100;BME280;10708;50.824;4.408;2022-12-18T06:34:15;101579.75;;;-5.09;100.00
21100;BME280;10708;50.824;4.408;2022-12-18T06:39:18;101559.59;;;-5.00;100.00
21100;BME280;10708;50.824;4.408;2022-12-18T06:44:20;101559.78;;;-4.96;100.00
21100;BME280;10708;50.824;4.408;2022-12-18T06:49:24;101549.78;;;-4.90;100.00
21100;BME280;10708;50.824;4.408;2022-12-18T06:54:26;101545.53;;;-4.89;100.00
21100;BME280;10708;50.824;4.408;2022-12-18T06:59:28;101539.53;;;-4.88;100.00
21100;BME280;10708;50.824;4.408;2022-12-18T07:04:32;101515.53;;;-4.89;100.00
21100;BME280;10708;50.824;4.408;2022-12-18T07:09:35;101507.16;;;-4.85;100.00
21100;BME280;10708;50.824;4.408;2022-12-18T07:14:37;101496.13;;;-4.82;100.00
21100;BME280;10708;50.824;4.408;2022-12-18T07:19:41;101501.38;;;-4.79;100.00
21100;BME280;10708;50.824;4.408;2022-12-18T07:24:43;101511.84;;;-4.74;100.00
21100;BME280;10708;50.824;4.408;2022-12-18T07:29:45;101499.19;;;-4.70;100.00
21100;BME280;10708;50.824;4.408;2022-12-18T07:34:49;101482.09;;;-4.69;100.00
21100;BME280;10708;50.824;4.408;2022-12-18T07:39:51;101465.78;;;-4.70;100.00
21100;BME280;10708;50.824;4.408;2022-12-18T07:44:54;101474.25;;;-4.72;100.00
21100;BME280;10708;50.824;4.408;2022-12-18T07:49:57;101457.22;;;-4.69;100.00
21100;BME280;10708;50.824;4.408;2022-12-18T07:55:00;101452.22;;;-4.66;100.00
21100;BME280;10708;50.824;4.408;2022-12-18T08:00:02;101450.72;;;-4.61;100.00
21100;BME280;10708;50.824;4.408;2022-12-18T08:05:07;101451.16;;;-4.50;100.00
21100;BME280;10708;50.824;4.408;2022-12-18T08:10:09;101465.25;;;-4.40;100.00
21100;BME280;10708;50.824;4.408;2022-12-18T08:15:12;101451.09;;;-4.29;100.00
21100;BME280;10708;50.824;4.408;2022-12-18T08:20:15;101465.34;;;-4.15;100.00
21100;BME280;10708;50.824;4.408;2022-12-18T08:25:19;101436.63;;;-4.03;100.00
21100;BME280;10708;50.824;4.408;2022-12-18T08:30:21;101442.66;;;-3.79;100.00
21100;BME280;10708;50.824;4.408;2022-12-18T08:35:24;101442.84;;;-3.51;100.00
21100;BME280;10708;50.824;4.408;2022-12-18T08:40:27;101426.44;;;-3.27;100.00
21100;BME280;10708;50.824;4.408;2022-12-18T08:45:30;101432.59;;;-3.24;100.00
21100;BME280;10708;50.824;4.408;2022-12-18T08:50:33;101417.38;;;-3.16;100.00
21100;BME280;10708;50.824;4.408;2022-12-18T08:55:36;101408.88;;;-3.14;100.00
21100;BME280;10708;50.824;4.408;2022-12-18T09:00:38;101415.03;;;-3.09;100.00
21100;BME280;10708;50.824;4.408;2022-12-18T09:05:42;101417.09;;;-2.99;100.00
21100;BME280;10708;50.824;4.408;2022-12-18T09:10:47;101422.66;;;-2.86;100.00
21100;BME280;10708;50.824;4.408;2022-12-18T09:15:51;101412.69;;;-2.76;100.00
21100;BME280;10708;50.824;4.408;2022-12-18T09:20:54;101410.31;;;-2.70;100.00
21100;BME280;10708;50.824;4.408;2022-12-18T09:25:58;101401.88;;;-2.64;100.00
21100;BME280;10708;50.824;4.408;2022-12-18T09:31:05;101402.34;;;-2.49;100.00
21100;BME280;10708;50.824;4.408;2022-12-18T09:36:12;101393.00;;;-2.45;100.00
21100;BME280;10708;50.824;4.408;2022-12-18T09:41:35;101389.09;;;-2.33;100.00
21100;BME280;10708;50.824;4.408;2022-12-18T09:46:46;101388.59;;;-2.19;100.00
21100;BME280;10708;50.824;4.408;2022-12-18T09:51:52;101403.41;;;-2.14;100.00
21100;BME280;10708;50.824;4.408;2022-12-18T09:56:56;101399.41;;;-2.03;100.00
21100;BME280;10708;50.824;4.408;2022-12-18T10:01:59;101403.13;;;-1.93;100.00
21100;BME280;10708;50.824;4.408;2022-12-18T10:07:06;101386.97;;;-1.86;100.00
21100;BME280;10708;50.824;4.408;2022-12-18T10:12:16;101360.75;;;-1.70;100.00
21100;BME280;10708;50.824;4.408;2022-12-18T10:17:26;101354.91;;;-1.63;100.00
21100;BME280;10708;50.824;4.408;2022-12-18T10:22:43;101352.34;;;-1.61;100.00
21100;BME280;10708;50.824;4.408;2022-12-18T10:27:52;101345.69;;;-1.53;100.00
21100;BME280;10708;50.824;4.408;2022-12-18T10:33:00;101339.06;;;-1.42;100.00
21100;BME280;10708;50.824;4.408;2022-12-18T10:38:06;101326.34;;;-1.34;100.00
21100;BME280;10708;50.824;4.408;2022-12-18T10:43:11;101339.38;;;-1.28;100.00
21100;BME280;10708;50.824;4.408;2022-12-18T10:48:19;101333.56;;;-1.21;100.00
21100;BME280;10708;50.824;4.408;2022-12-18T10:53:25;101324.53;;;-1.02;100.00
21100;BME280;10708;50.824;4.408;2022-12-18T10:58:30;101332.56;;;-0.90;100.00
21100;BME280;10708;50.824;4.408;2022-12-18T11:03:35;101327.56;;;-0.83;100.00
21100;BME280;10708;50.824;4.408;2022-12-18T11:08:40;101331.22;;;-0.73;100.00
21100;BME280;10708;50.824;4.408;2022-12-18T11:13:55;101313.44;;;-0.58;100.00
21100;BME280;10708;50.824;4.408;2022-12-18T11:19:17;101323.09;;;-0.51;100.00
21100;BME280;10708;50.824;4.408;2022-12-18T11:24:27;101320.75;;;-0.39;100.00
21100;BME280;10708;50.824;4.408;2022-12-18T11:29:35;101320.00;;;-0.33;100.00
21100;BME280;10708;50.824;4.408;2022-12-18T11:34:39;101326.28;;;-0.22;100.00
21100;BME280;10708;50.824;4.408;2022-12-18T11:39:50;101320.28;;;-0.18;100.00
21100;BME280;10708;50.824;4.408;2022-12-18T11:44:58;101329.97;;;-0.11;100.00
21100;BME280;10708;50.824;4.408;2022-12-18T11:50:05;101329.16;;;-0.07;100.00
21100;BME280;10708;50.824;4.408;2022-12-18T11:55:16;101330.19;;;0.03;100.00
21100;BME280;10708;50.824;4.408;2022-12-18T12:00:22;101325.06;;;0.05;100.00
21100;BME280;10708;50.824;4.408;2022-12-18T12:05:31;101302.94;;;0.23;100.00
21100;BME280;10708;50.824;4.408;2022-12-18T12:10:48;101291.75;;;0.24;100.00
21100;BME280;10708;50.824;4.408;2022-12-18T12:16:02;101294.56;;;0.36;100.00
21100;BME280;10708;50.824;4.408;2022-12-18T12:21:15;101277.34;;;0.42;100.00
21100;BME280;10708;50.824;4.408;2022-12-18T12:26:29;101275.72;;;0.47;100.00
21100;BME280;10708;50.824;4.408;2022-12-18T12:31:40;101269.72;;;0.51;100.00
21100;BME280;10708;50.824;4.408;2022-12-18T12:37:02;101267.13;;;0.49;100.00
21100;BME280;10708;50.824;4.408;2022-12-18T12:42:14;101265.53;;;0.57;100.00
21100;BME280;10708;50.824;4.408;2022-12-18T12:47:38;101258.69;;;0.62;100.00
21100;BME280;10708;50.824;4.408;2022-12-18T12:52:45;101231.91;;;0.63;100.00
21100;BME280;10708;50.824;4.408;2022-12-18T12:57:55;101228.50;;;0.66;100.00
21100;BME280;10708;50.824;4.408;2022-12-18T13:03:07;101232.78;;;0.64;100.00
21100;BME280;10708;50.824;4.408;2022-12-18T13:08:12;101226.72;;;0.62;100.00
21100;BME280;10708;50.824;4.408;2022-12-18T13:13:48;101238.78;;;0.61;100.00
21100;BME280;10708;50.824;4.408;2022-12-18T13:18:51;101238.94;;;0.69;100.00
21100;BME280;10708;50.824;4.408;2022-12-18T13:23:55;101221.56;;;0.65;100.00
21100;BME280;10708;50.824;4.408;2022-12-18T13:29:00;101221.56;;;0.63;100.00
21100;BME280;10708;50.824;4.408;2022-12-18T13:34:15;101212.88;;;0.60;100.00
21100;BME280;10708;50.824;4.408;2022-12-18T13:39:24;101207.59;;;0.54;100.00
21100;BME280;10708;50.824;4.408;2022-12-18T13:44:32;101204.13;;;0.53;100.00
21100;BME280;10708;50.824;4.408;2022-12-18T13:49:38;101215.03;;;0.34;100.00
21100;BME280;10708;50.824;4.408;2022-12-18T13:54:41;101205.81;;;0.50;100.00
21100;BME280;10708;50.824;4.408;2022-12-18T13:59:46;101214.44;;;0.52;100.00
21100;BME280;10708;50.824;4.408;2022-12-18T14:04:49;101196.22;;;0.46;100.00
21100;BME280;10708;50.824;4.408;2022-12-18T14:09:53;101199.72;;;0.48;100.00
21100;BME280;10708;50.824;4.408;2022-12-18T14:14:59;101205.63;;;0.39;100.00
21100;BME280;10708;50.824;4.408;2022-12-18T14:20:02;101201.13;;;0.27;100.00
21100;BME280;10708;50.824;4.408;2022-12-18T14:25:17;101207.34;;;0.37;100.00
21100;BME280;10708;50.824;4.408;2022-12-18T14:30:26;101217.75;;;0.42;100.00
21100;BME280;10708;50.824;4.408;2022-12-18T14:35:31;101203.06;;;0.42;100.00
21100;BME280;10708;50.824;4.408;2022-12-18T14:40:36;101195.34;;;0.45;100.00
21100;BME280;10708;50.824;4.408;2022-12-18T14:45:41;101174.56;;;0.42;100.00
21100;BME280;10708;50.824;4.408;2022-12-18T14:50:45;101165.88;;;0.40;100.00
21100;BME280;10708;50.824;4.408;2022-12-18T14:55:56;101171.94;;;0.38;100.00
21100;BME280;10708;50.824;4.408;2022-12-18T15:00:59;101159.03;;;0.44;100.00
21100;BME280;10708;50.824;4.408;2022-12-18T15:06:16;101164.34;;;0.51;100.00
21100;BME280;10708;50.824;4.408;2022-12-18T15:11:45;101158.28;;;0.51;100.00
21100;BME280;10708;50.824;4.408;2022-12-18T15:17:05;101153.88;;;0.45;100.00
21100;BME280;10708;50.824;4.408;2022-12-18T15:22:25;101146.06;;;0.42;100.00
21100;BME280;10708;50.824;4.408;2022-12-18T15:27:51;101127.88;;;0.38;100.00
21100;BME280;10708;50.824;4.408;2022-12-18T15:33:31;101119.13;;;0.31;100.00
21100;BME280;10708;50.824;4.408;2022-12-18T15:38:38;101125.19;;;0.30;100.00
21100;BME280;10708;50.824;4.408;2022-12-18T15:49:25;101125.19;;;0.33;100.00
21100;BME280;10708;50.824;4.408;2022-12-18T15:54:28;101121.72;;;0.32;100.00
21100;BME280;10708;50.824;4.408;2022-12-18T15:59:52;101114.03;;;0.37;100.00
21100;BME280;10708;50.824;4.408;2022-12-18T16:04:58;101111.47;;;0.37;100.00
21100;BME280;10708;50.824;4.408;2022-12-18T16:15:33;101115.81;;;0.41;100.00
21100;BME280;10708;50.824;4.408;2022-12-18T16:20:38;101107.16;;;0.39;100.00
21100;BME280;10708;50.824;4.408;2022-12-18T16:25:40;101100.34;;;0.46;100.00
21100;BME280;10708;50.824;4.408;2022-12-18T16:30:43;101102.97;;;0.47;100.00
21100;BME280;10708;50.824;4.408;2022-12-18T16:35:52;101097.81;;;0.49;100.00
21100;BME280;10708;50.824;4.408;2022-12-18T16:40:54;101089.25;;;0.56;100.00
21100;BME280;10708;50.824;4.408;2022-12-18T16:46:14;101081.47;;;0.56;100.00
21100;BME280;10708;50.824;4.408;2022-12-18T16:51:27;101073.75;;;0.62;100.00
21100;BME280;10708;50.824;4.408;2022-12-18T16:56:30;101065.19;;;0.66;100.00
21100;BME280;10708;50.824;4.408;2022-12-18T17:01:33;101069.59;;;0.73;100.00
21100;BME280;10708;50.824;4.408;2022-12-18T17:06:40;101066.13;;;0.72;100.00
21100;BME280;10708;50.824;4.408;2022-12-18T17:11:43;101060.13;;;0.77;100.00
21100;BME280;10708;50.824;4.408;2022-12-18T17:16:48;101051.53;;;0.79;100.00
21100;BME280;10708;50.824;4.408;2022-12-18T17:21:53;101053.25;;;0.80;100.00
21100;BME280;10708;50.824;4.408;2022-12-18T17:27:00;101060.19;;;0.80;100.00
21100;BME280;10708;50.824;4.408;2022-12-18T17:32:06;101060.16;;;0.78;100.00
21100;BME280;10708;50.824;4.408;2022-12-18T17:37:12;101065.28;;;0.75;100.00
21100;BME280;10708;50.824;4.408;2022-12-18T17:42:14;101073.91;;;0.72;100.00
21100;BME280;10708;50.824;4.408;2022-12-18T17:47:17;101067.84;;;0.72;100.00
21100;BME280;10708;50.824;4.408;2022-12-18T17:52:21;101072.09;;;0.65;100.00
21100;BME280;10708;50.824;4.408;2022-12-18T17:57:23;101062.50;;;0.58;100.00
21100;BME280;10708;50.824;4.408;2022-12-18T18:02:25;101071.09;;;0.56;100.00
21100;BME280;10708;50.824;4.408;2022-12-18T18:07:29;101062.41;;;0.52;100.00
21100;BME280;10708;50.824;4.408;2022-12-18T18:12:32;101053.69;;;0.46;100.00
21100;BME280;10708;50.824;4.408;2022-12-18T18:17:52;101063.13;;;0.39;100.00
21100;BME280;10708;50.824;4.408;2022-12-18T18:22:56;101052.69;;;0.34;100.00
21100;BME280;10708;50.824;4.408;2022-12-18T18:27:58;101051.75;;;0.31;100.00
21100;BME280;10708;50.824;4.408;2022-12-18T18:33:00;101056.06;;;0.30;100.00
21100;BME280;10708;50.824;4.408;2022-12-18T18:38:04;101054.34;;;0.31;100.00
21100;BME280;10708;50.824;4.408;2022-12-18T18:43:06;101069.03;;;0.32;100.00
21100;BME280;10708;50.824;4.408;2022-12-18T18:48:09;101072.50;;;0.32;100.00
21100;BME280;10708;50.824;4.408;2022-12-18T18:53:13;101090.66;;;0.34;100.00
21100;BME280;10708;50.824;4.408;2022-12-18T18:58:15;101085.50;;;0.35;100.00
21100;BME280;10708;50.824;4.408;2022-12-18T19:03:18;101080.38;;;0.39;100.00
21100;BME280;10708;50.824;4.408;2022-12-18T19:08:22;101087.34;;;0.44;100.00
21100;BME280;10708;50.824;4.408;2022-12-18T19:13:38;101084.84;;;0.49;100.00
21100;BME280;10708;50.824;4.408;2022-12-18T19:18:40;101092.63;;;0.52;100.00
21100;BME280;10708;50.824;4.408;2022-12-18T19:23:47;101089.25;;;0.56;100.00
21100;BME280;10708;50.824;4.408;2022-12-18T19:28:49;101091.06;;;0.63;100.00
21100;BME280;10708;50.824;4.408;2022-12-18T19:33:52;101074.66;;;0.64;100.00
21100;BME280;10708;50.824;4.408;2022-12-18T19:38:58;101086.84;;;0.69;100.00
21100;BME280;10708;50.824;4.408;2022-12-18T19:44:01;101092.03;;;0.71;100.00
21100;BME280;10708;50.824;4.408;2022-12-18T19:49:03;101078.25;;;0.75;100.00
21100;BME280;10708;50.824;4.408;2022-12-18T19:54:07;101080.91;;;0.78;100.00
21100;BME280;10708;50.824;4.408;2022-12-18T19:59:12;101077.47;;;0.82;100.00
21100;BME280;10708;50.824;4.408;2022-12-18T20:04:14;101069.75;;;0.87;100.00
21100;BME280;10708;50.824;4.408;2022-12-18T20:09:19;101073.25;;;0.90;100.00
21100;BME280;10708;50.824;4.408;2022-12-18T20:14:22;101059.41;;;0.91;100.00
21100;BME280;10708;50.824;4.408;2022-12-18T20:19:25;101052.59;;;0.96;100.00
21100;BME280;10708;50.824;4.408;2022-12-18T20:24:29;101056.94;;;0.99;100.00
21100;BME280;10708;50.824;4.408;2022-12-18T20:29:31;101051.78;;;1.03;100.00
21100;BME280;10708;50.824;4.408;2022-12-18T20:34:34;101030.16;;;1.03;100.00
21100;BME280;10708;50.824;4.408;2022-12-18T20:39:38;101029.38;;;1.08;100.00
21100;BME280;10708;50.824;4.408;2022-12-18T20:44:40;101026.75;;;1.10;100.00
21100;BME280;10708;50.824;4.408;2022-12-18T20:49:42;101011.25;;;1.15;100.00
21100;BME280;10708;50.824;4.408;2022-12-18T20:54:46;101000.06;;;1.19;100.00
21100;BME280;10708;50.824;4.408;2022-12-18T20:59:49;100995.75;;;1.22;100.00
21100;BME280;10708;50.824;4.408;2022-12-18T21:04:51;100988.88;;;1.26;100.00
21100;BME280;10708;50.824;4.408;2022-12-18T21:09:55;100970.75;;;1.30;100.00
21100;BME280;10708;50.824;4.408;2022-12-18T21:14:58;100976.81;;;1.32;100.00
21100;BME280;10708;50.824;4.408;2022-12-18T21:20:00;100970.78;;;1.33;100.00
21100;BME280;10708;50.824;4.408;2022-12-18T21:25:04;100949.19;;;1.37;100.00
21100;BME280;10708;50.824;4.408;2022-12-18T21:30:08;100957.88;;;1.42;100.00
21100;BME280;10708;50.824;4.408;2022-12-18T21:35:10;100944.06;;;1.46;100.00
21100;BME280;10708;50.824;4.408;2022-12-18T21:40:14;100942.34;;;1.50;100.00
21100;BME280;10708;50.824;4.408;2022-12-18T21:45:17;100944.97;;;1.53;100.00
21100;BME280;10708;50.824;4.408;2022-12-18T21:50:19;100936.34;;;1.57;100.00
21100;BME280;10708;50.824;4.408;2022-12-18T21:55:23;100918.22;;;1.63;100.00
21100;BME280;10708;50.824;4.408;2022-12-18T22:00:25;100898.34;;;1.68;100.00
21100;BME280;10708;50.824;4.408;2022-12-18T22:05:28;100902.66;;;1.71;100.00
21100;BME280;10708;50.824;4.408;2022-12-18T22:10:32;100914.88;;;1.79;100.00
21100;BME280;10708;50.824;4.408;2022-12-18T22:15:34;100905.34;;;1.83;100.00
21100;BME280;10708;50.824;4.408;2022-12-18T22:20:37;100901.91;;;1.90;100.00
21100;BME280;10708;50.824;4.408;2022-12-18T22:25:40;100885.47;;;1.94;100.00
21100;BME280;10708;50.824;4.408;2022-12-18T22:30:43;100888.09;;;2.00;100.00
21100;BME280;10708;50.824;4.408;2022-12-18T22:35:45;100882.94;;;2.05;100.00
21100;BME280;10708;50.824;4.408;2022-12-18T22:40:49;100876.88;;;2.10;100.00
21100;BME280;10708;50.824;4.408;2022-12-18T22:45:51;100866.50;;;2.15;100.00
21100;BME280;10708;50.824;4.408;2022-12-18T22:50:53;100849.22;;;2.18;100.00
21100;BME280;10708;50.824;4.408;2022-12-18T22:56:00;100856.13;;;2.24;100.00
21100;BME280;10708;50.824;4.408;2022-12-18T23:01:04;100848.34;;;2.30;100.00
21100;BME280;10708;50.824;4.408;2022-12-18T23:06:08;100838.00;;;2.38;100.00
21100;BME280;10708;50.824;4.408;2022-12-18T23:11:13;100840.59;;;2.50;100.00
21100;BME280;10708;50.824;4.408;2022-12-18T23:16:18;100853.59;;;2.54;100.00
21100;BME280;10708;50.824;4.408;2022-12-18T23:21:22;100836.28;;;2.61;100.00
21100;BME280;10708;50.824;4.408;2022-12-18T23:26:26;100809.41;;;2.70;100.00
21100;BME280;10708;50.824;4.408;2022-12-18T23:31:30;100816.38;;;2.78;100.00
21100;BME280;10708;50.824;4.408;2022-12-18T23:36:33;100805.94;;;2.87;100.00
21100;BME280;10708;50.824;4.408;2022-12-18T23:41:37;100791.19;;;2.92;100.00
21100;BME280;10708;50.824;4.408;2022-12-18T23:46:39;100774.69;;;3.00;100.00
21100;BME280;10708;50.824;4.408;2022-12-18T23:51:41;100783.38;;;3.05;100.00
21100;BME280;10708;50.824;4.408;2022-12-18T23:56:45;100784.25;;;3.08;100.00
